Sepulveda, California
Current Conditions -  °F | °C
As of 1:53 PM on Friday 24 Oct 2014 (Local Time) from KBUR Reporting Station
Clear Clear  
Wind Chill: 31°   Ceiling: Unl
Heat Index: 31°   Visibility: 10mi
Dew Point:   Wind: 7mph
Humidity: 14%   Direction: NA
Pressure: 29.95"   Gusts: NA
Location:  34.1618°N, 118.281°W
Report Text: KBUR 242053Z VRB06KT 10SM CLR 31/00 A2995 RMK AO2 SLP126 T03110000 58019
Loading
Personal Weather Stations






























Interactive Weather Map
Tropical Storm Tracking
New forecast layout! Learn more

10-Day Weather Forecast

Advertisements
Track Severe Weather on mobile